XAFOF MMMX-MMGL
Flight info
| Callsign | XAFOF |
|---|---|
| Flight time | N/A |
| Altitude | 43000 |
| Route | OVAGO3A OVAGO UT123 IGSON IGSON1B |
| Aircraft | GLF4/M-SFGHIRWXY/S |
Departure
| Time | 2026-05-06 01:32 |
|---|---|
| Airport | Mexico City Benito Juárez International Airport (MMMX) |
Arrival
| Time | N/A |
|---|---|
| Airport | Guadalajara International Airport (MMGL) |
| Time | Latitude | Longitude | Altitude | Speed | Heading |
|---|---|---|---|---|---|
| 2026-05-06 01:22 | 19.42839 | -99.07653 | 7322 ft | 0 kts | 239° |
| 2026-05-06 01:26 | 19.42835 | -99.07661 | 7322 ft | 2 kts | 248° |
| 2026-05-06 01:27 | 19.42839 | -99.07690 | 7322 ft | 6 kts | 306° |
| 2026-05-06 01:27 | 19.42819 | -99.07803 | 7322 ft | 24 kts | 234° |
| 2026-05-06 01:27 | 19.42728 | -99.07969 | 7322 ft | 37 kts | 239° |
| 2026-05-06 01:27 | 19.42580 | -99.08230 | 7322 ft | 39 kts | 240° |
| 2026-05-06 01:28 | 19.42611 | -99.08453 | 7322 ft | 11 kts | 292° |
| 2026-05-06 01:28 | 19.42614 | -99.08459 | 7322 ft | 0 kts | 292° |
| 2026-05-06 01:28 | 19.42620 | -99.08476 | 7322 ft | 13 kts | 292° |
| 2026-05-06 01:29 | 19.42628 | -99.08497 | 7322 ft | 0 kts | 292° |
| 2026-05-06 01:32 | 19.42641 | -99.08530 | 7322 ft | 15 kts | 299° |
| 2026-05-06 01:32 | 19.42842 | -99.08331 | 7322 ft | 102 kts | 60° |
| 2026-05-06 01:32 | 19.43404 | -99.07333 | 7361 ft | 210 kts | 62° |
| 2026-05-06 01:32 | 19.44245 | -99.05885 | 8085 ft | 247 kts | 55° |
| 2026-05-06 01:33 | 19.45236 | -99.04293 | 9052 ft | 278 kts | 59° |
| 2026-05-06 01:33 | 19.46291 | -99.02509 | 10000 ft | 292 kts | 58° |
| 2026-05-06 01:33 | 19.47359 | -99.00700 | 10920 ft | 287 kts | 57° |
| 2026-05-06 01:33 | 19.48353 | -98.99017 | 11814 ft | 260 kts | 57° |
| 2026-05-06 01:34 | 19.49288 | -98.97359 | 12743 ft | 268 kts | 69° |
| 2026-05-06 01:34 | 19.49414 | -98.95394 | 13743 ft | 278 kts | 104° |
| 2026-05-06 01:34 | 19.48463 | -98.93623 | 14736 ft | 285 kts | 137° |
| 2026-05-06 01:34 | 19.46756 | -98.92655 | 15715 ft | 290 kts | 169° |
| 2026-05-06 01:35 | 19.44747 | -98.92792 | 16720 ft | 304 kts | 201° |
| 2026-05-06 01:35 | 19.42942 | -98.94079 | 17762 ft | 334 kts | 230° |
| 2026-05-06 01:35 | 19.41793 | -98.96283 | 18792 ft | 363 kts | 254° |
| 2026-05-06 01:35 | 19.40779 | -98.98834 | 19797 ft | 396 kts | 243° |
| 2026-05-06 01:36 | 19.39431 | -99.01510 | 20781 ft | 418 kts | 243° |
| 2026-05-06 01:36 | 19.38064 | -99.04204 | 21728 ft | 421 kts | 243° |
| 2026-05-06 01:36 | 19.37055 | -99.07037 | 22684 ft | 421 kts | 258° |
| 2026-05-06 01:36 | 19.36527 | -99.10159 | 23668 ft | 426 kts | 262° |
| 2026-05-06 01:37 | 19.36078 | -99.13214 | 24606 ft | 431 kts | 262° |
| 2026-05-06 01:37 | 19.35605 | -99.16438 | 25585 ft | 436 kts | 262° |
| 2026-05-06 01:37 | 19.35140 | -99.19611 | 26537 ft | 441 kts | 262° |
| 2026-05-06 01:37 | 19.34667 | -99.22836 | 27493 ft | 446 kts | 262° |
| 2026-05-06 01:38 | 19.34200 | -99.26017 | 28426 ft | 451 kts | 262° |
| 2026-05-06 01:38 | 19.33705 | -99.29382 | 29019 ft | 460 kts | 262° |
| 2026-05-06 01:38 | 19.32719 | -99.36077 | 29134 ft | 457 kts | 262° |
| 2026-05-06 01:39 | 19.31574 | -99.42750 | 29146 ft | 454 kts | 260° |
| 2026-05-06 01:39 | 19.30310 | -99.49320 | 29146 ft | 456 kts | 260° |
| 2026-05-06 01:40 | 19.29046 | -99.55876 | 29145 ft | 455 kts | 260° |
| 2026-05-06 01:40 | 19.27770 | -99.62477 | 29145 ft | 455 kts | 260° |
| 2026-05-06 01:41 | 19.26482 | -99.69132 | 29147 ft | 456 kts | 259° |
| 2026-05-06 01:41 | 19.25204 | -99.75716 | 29147 ft | 455 kts | 259° |
| 2026-05-06 01:42 | 19.23956 | -99.82282 | 29147 ft | 455 kts | 260° |
| 2026-05-06 01:42 | 19.22756 | -99.88881 | 29147 ft | 455 kts | 260° |
| 2026-05-06 01:43 | 19.21614 | -99.95157 | 29247 ft | 453 kts | 260° |
| 2026-05-06 01:43 | 19.21042 | -99.98297 | 29516 ft | 455 kts | 260° |
| 2026-05-06 01:43 | 19.20406 | -100.01778 | 29810 ft | 458 kts | 260° |
| 2026-05-06 01:44 | 19.19787 | -100.05170 | 30094 ft | 461 kts | 260° |
| 2026-05-06 01:44 | 19.19176 | -100.08514 | 30373 ft | 462 kts | 260° |
| 2026-05-06 01:44 | 19.18598 | -100.11899 | 30651 ft | 462 kts | 266° |
| 2026-05-06 01:44 | 19.18857 | -100.15329 | 30977 ft | 462 kts | 284° |
| 2026-05-06 01:45 | 19.19734 | -100.18630 | 31268 ft | 464 kts | 288° |
| 2026-05-06 01:45 | 19.20741 | -100.21915 | 31548 ft | 466 kts | 289° |
| 2026-05-06 01:45 | 19.21690 | -100.24924 | 31804 ft | 467 kts | 289° |
| 2026-05-06 01:45 | 19.22469 | -100.27380 | 32012 ft | 468 kts | 289° |
| 2026-05-06 01:46 | 19.23525 | -100.30702 | 32293 ft | 469 kts | 289° |
| 2026-05-06 01:46 | 19.24532 | -100.33871 | 32673 ft | 469 kts | 289° |
| 2026-05-06 01:46 | 19.25575 | -100.37154 | 33228 ft | 473 kts | 289° |
| 2026-05-06 01:46 | 19.26640 | -100.40513 | 33788 ft | 478 kts | 289° |
| 2026-05-06 01:47 | 19.27699 | -100.43853 | 34339 ft | 481 kts | 289° |
| 2026-05-06 01:47 | 19.28780 | -100.47263 | 34896 ft | 485 kts | 289° |
| 2026-05-06 01:47 | 19.29860 | -100.50675 | 35111 ft | 490 kts | 289° |
| 2026-05-06 01:47 | 19.30949 | -100.54116 | 35138 ft | 490 kts | 289° |
| 2026-05-06 01:48 | 19.33117 | -100.60975 | 35143 ft | 488 kts | 289° |
| 2026-05-06 01:48 | 19.35312 | -100.67928 | 35147 ft | 488 kts | 289° |
| 2026-05-06 01:49 | 19.37563 | -100.74811 | 35146 ft | 488 kts | 290° |
| 2026-05-06 01:49 | 19.39858 | -100.81474 | 35147 ft | 488 kts | 290° |
| 2026-05-06 01:50 | 19.42144 | -100.88115 | 35130 ft | 488 kts | 290° |
| 2026-05-06 01:50 | 19.44447 | -100.94813 | 35103 ft | 489 kts | 290° |
| 2026-05-06 01:51 | 19.46527 | -101.00874 | 35065 ft | 489 kts | 290° |
| 2026-05-06 01:51 | 19.48778 | -101.07440 | 35019 ft | 491 kts | 290° |
| 2026-05-06 01:52 | 19.51114 | -101.14262 | 34992 ft | 495 kts | 290° |
| 2026-05-06 01:52 | 19.53439 | -101.21062 | 34981 ft | 495 kts | 290° |
| 2026-05-06 01:53 | 19.55794 | -101.27958 | 34981 ft | 495 kts | 290° |
| 2026-05-06 01:53 | 19.58109 | -101.34747 | 34980 ft | 496 kts | 290° |
| 2026-05-06 01:54 | 19.59901 | -101.40009 | 34980 ft | 496 kts | 290° |